createdAt,value
2022-12-15T00:09:17.727Z,-8.48
2022-12-15T00:11:47.074Z,-8.64
2022-12-15T00:14:13.672Z,-8.53
2022-12-15T00:16:40.688Z,-8.51
2022-12-15T00:19:07.291Z,-8.45
2022-12-15T00:21:34.268Z,-8.62
2022-12-15T00:24:01.159Z,-8.48
2022-12-15T00:26:29.529Z,-8.60
2022-12-15T00:28:56.315Z,-8.63
2022-12-15T00:31:23.416Z,-8.91
2022-12-15T00:33:50.046Z,-8.85
2022-12-15T00:36:16.716Z,-8.94
2022-12-15T00:38:43.377Z,-8.99
2022-12-15T00:41:16.010Z,-8.87
2022-12-15T00:43:43.692Z,-8.83
2022-12-15T00:46:10.691Z,-8.89
2022-12-15T00:48:38.556Z,-9.15
2022-12-15T00:51:05.231Z,-9.01
2022-12-15T00:53:32.442Z,-9.00
2022-12-15T00:55:59.385Z,-9.18
2022-12-15T00:58:26.090Z,-9.21
2022-12-15T01:00:52.714Z,-9.31
2022-12-15T01:03:22.431Z,-9.44
2022-12-15T01:05:49.128Z,-9.29
2022-12-15T01:08:15.880Z,-9.32
2022-12-15T01:10:42.498Z,-9.08
2022-12-15T01:13:13.419Z,-9.61
2022-12-15T01:15:40.420Z,-9.29
2022-12-15T01:18:07.056Z,-9.04
2022-12-15T01:20:33.765Z,-9.06
2022-12-15T01:23:00.689Z,-9.02
2022-12-15T01:25:27.409Z,-9.14
2022-12-15T01:27:54.223Z,-9.41
2022-12-15T01:30:26.361Z,-9.08
2022-12-15T01:32:53.654Z,-9.11
2022-12-15T01:35:20.617Z,-9.19
2022-12-15T01:37:50.266Z,-9.25
2022-12-15T01:40:19.331Z,-8.90
2022-12-15T01:42:46.297Z,-9.12
2022-12-15T01:45:31.491Z,-8.99
2022-12-15T01:48:09.296Z,-9.04
2022-12-15T01:50:58.618Z,-9.39
2022-12-15T01:53:27.145Z,-9.26
2022-12-15T01:55:54.382Z,-9.11
2022-12-15T01:58:22.718Z,-9.39
2022-12-15T02:00:49.404Z,-9.30
2022-12-15T02:03:16.339Z,-9.19
2022-12-15T02:05:43.126Z,-9.37
2022-12-15T02:08:10.594Z,-9.08
2022-12-15T02:10:49.336Z,-9.25
2022-12-15T02:13:35.120Z,-9.18
2022-12-15T02:16:12.478Z,-8.97
2022-12-15T02:18:59.366Z,-8.84
2022-12-15T02:21:58.481Z,-8.82
2022-12-15T02:24:56.963Z,-8.80
2022-12-15T02:27:48.796Z,-8.86
2022-12-15T02:30:20.431Z,-8.86
2022-12-15T02:33:27.191Z,-8.87
2022-12-15T02:36:00.080Z,-8.89
2022-12-15T02:38:38.528Z,-9.06
2022-12-15T02:41:26.660Z,-8.85
2022-12-15T02:43:53.614Z,-8.99
2022-12-15T02:46:46.080Z,-9.15
2022-12-15T02:49:30.249Z,-9.90
2022-12-15T02:52:34.317Z,-9.22
2022-12-15T02:55:38.990Z,-9.36
2022-12-15T02:58:30.438Z,-9.07
2022-12-15T03:01:19.616Z,-9.01
2022-12-15T03:03:48.408Z,-9.06
2022-12-15T03:06:16.780Z,-9.11
2022-12-15T03:08:43.667Z,-9.10
2022-12-15T03:11:10.392Z,-9.20
2022-12-15T03:13:37.070Z,-9.18
2022-12-15T03:16:03.858Z,-9.08
2022-12-15T03:18:30.594Z,-8.99
2022-12-15T03:20:57.212Z,-9.05
2022-12-15T03:23:24.742Z,-9.02
2022-12-15T03:25:51.439Z,-8.87
2022-12-15T03:28:18.355Z,-8.76
2022-12-15T03:30:45.497Z,-8.69
2022-12-15T03:33:17.648Z,-8.74
2022-12-15T03:35:44.393Z,-8.81
2022-12-15T03:38:11.148Z,-8.76
2022-12-15T03:40:37.711Z,-8.79
2022-12-15T03:43:04.538Z,-8.86
2022-12-15T03:45:31.325Z,-9.39
2022-12-15T03:47:58.074Z,-9.28
2022-12-15T03:50:27.080Z,-9.11
2022-12-15T03:52:59.345Z,-9.13
2022-12-15T03:55:26.662Z,-9.19
2022-12-15T03:57:53.238Z,-9.01
2022-12-15T04:00:21.722Z,-8.96
2022-12-15T04:02:50.870Z,-9.04
2022-12-15T04:05:20.640Z,-9.10
2022-12-15T04:07:47.310Z,-9.20
2022-12-15T04:10:14.881Z,-9.15
2022-12-15T04:12:41.725Z,-9.21
2022-12-15T04:15:10.409Z,-9.15
2022-12-15T04:17:37.135Z,-9.38
2022-12-15T04:20:05.347Z,-9.66
2022-12-15T04:22:31.970Z,-9.41
2022-12-15T04:24:58.633Z,-9.35
2022-12-15T04:27:25.233Z,-9.19
2022-12-15T04:29:52.101Z,-9.27
2022-12-15T04:32:18.826Z,-9.29
2022-12-15T04:34:45.491Z,-9.18
2022-12-15T04:37:14.291Z,-9.32
2022-12-15T04:39:44.143Z,-8.96
2022-12-15T04:42:10.886Z,-8.92
2022-12-15T04:44:37.759Z,-8.93
2022-12-15T04:47:04.435Z,-8.98
2022-12-15T04:49:31.129Z,-8.91
2022-12-15T04:51:57.879Z,-9.01
2022-12-15T04:54:24.516Z,-9.22
2022-12-15T04:56:51.109Z,-9.20
2022-12-15T04:59:18.211Z,-9.22
2022-12-15T05:01:44.939Z,-9.13
2022-12-15T05:04:11.891Z,-9.31
2022-12-15T05:06:38.608Z,-9.03
2022-12-15T05:09:05.430Z,-9.05
2022-12-15T05:11:32.026Z,-9.21
2022-12-15T05:13:58.703Z,-9.20
2022-12-15T05:16:25.393Z,-9.24
2022-12-15T05:18:52.162Z,-9.41
2022-12-15T05:21:18.868Z,-9.38
2022-12-15T05:23:45.622Z,-9.59
2022-12-15T05:26:12.229Z,-9.47
2022-12-15T05:28:39.038Z,-9.51
2022-12-15T05:31:06.950Z,-9.42
2022-12-15T05:33:33.965Z,-9.35
2022-12-15T05:36:00.856Z,-9.34
2022-12-15T05:38:27.493Z,-9.24
2022-12-15T05:40:57.519Z,-9.51
2022-12-15T05:43:26.486Z,-9.40
2022-12-15T05:45:53.611Z,-9.43
2022-12-15T05:48:20.318Z,-9.55
2022-12-15T05:50:46.965Z,-9.78
2022-12-15T05:53:16.473Z,-9.77
2022-12-15T05:55:43.079Z,-9.72
2022-12-15T05:58:09.786Z,-10.00
2022-12-15T06:00:36.618Z,-9.75
2022-12-15T06:03:03.451Z,-9.61
2022-12-15T06:05:30.147Z,-9.55
2022-12-15T06:07:56.840Z,-9.59
2022-12-15T06:10:23.477Z,-9.43
2022-12-15T06:12:50.195Z,-9.44
2022-12-15T06:15:16.895Z,-9.37
2022-12-15T06:17:43.641Z,-9.35
2022-12-15T06:20:16.553Z,-9.34
2022-12-15T06:22:48.113Z,-9.46
2022-12-15T06:25:16.746Z,-9.49
2022-12-15T06:27:44.616Z,-9.54
2022-12-15T06:30:11.642Z,-9.47
2022-12-15T06:32:38.279Z,-9.43
2022-12-15T06:35:05.474Z,-9.43
2022-12-15T06:37:32.068Z,-9.47
2022-12-15T06:39:58.828Z,-9.55
2022-12-15T06:42:25.465Z,-9.68
2022-12-15T06:44:52.142Z,-9.67
2022-12-15T06:47:18.748Z,-9.70
2022-12-15T06:49:45.553Z,-9.70
2022-12-15T06:52:12.144Z,-9.67
2022-12-15T06:54:38.816Z,-9.70
2022-12-15T06:57:05.472Z,-9.87
2022-12-15T06:59:32.169Z,-9.76
2022-12-15T07:01:59.057Z,-9.86
2022-12-15T07:04:26.026Z,-9.78
2022-12-15T07:06:52.693Z,-9.84
2022-12-15T07:09:19.425Z,-9.85
2022-12-15T07:11:46.105Z,-9.81
2022-12-15T07:14:12.761Z,-9.74
2022-12-15T07:16:39.452Z,-9.84
2022-12-15T07:19:06.283Z,-9.83
2022-12-15T07:21:32.960Z,-9.74
2022-12-15T07:24:00.617Z,-9.76
2022-12-15T07:26:28.007Z,-9.78
2022-12-15T07:28:54.750Z,-9.82
2022-12-15T07:31:22.080Z,-9.83
2022-12-15T07:33:49.229Z,-9.83
2022-12-15T07:36:15.837Z,-9.81
2022-12-15T07:38:42.607Z,-10.15
2022-12-15T07:41:10.171Z,-9.76
2022-12-15T07:43:37.981Z,-9.73
2022-12-15T07:46:05.595Z,-9.78
2022-12-15T07:48:33.601Z,-9.80
2022-12-15T07:51:10.842Z,-9.74
2022-12-15T07:53:42.982Z,-9.78
2022-12-15T07:56:10.417Z,-10.18
2022-12-15T07:58:38.648Z,-10.01
2022-12-15T08:01:08.466Z,-9.98
2022-12-15T08:03:37.150Z,-10.00
2022-12-15T08:06:08.662Z,-10.52
2022-12-15T08:08:35.996Z,-10.35
2022-12-15T08:11:07.077Z,-10.43
2022-12-15T08:16:21.904Z,-10.44
2022-12-15T08:18:48.578Z,-10.73
2022-12-15T08:21:15.341Z,-10.46
2022-12-15T08:23:42.024Z,-10.37
2022-12-15T08:26:11.444Z,-10.59
2022-12-15T08:28:39.765Z,-10.19
2022-12-15T08:31:12.085Z,-10.40
2022-12-15T08:33:39.914Z,-10.08
2022-12-15T08:36:09.881Z,-10.27
2022-12-15T08:38:38.436Z,-10.44
2022-12-15T08:41:14.331Z,-10.81
2022-12-15T08:43:47.673Z,-10.69
2022-12-15T08:46:20.186Z,-10.39
2022-12-15T08:48:47.695Z,-10.25
2022-12-15T08:51:15.333Z,-10.07
2022-12-15T08:53:42.619Z,-9.91
2022-12-15T08:56:12.257Z,-9.81
2022-12-15T08:58:39.700Z,-9.72
2022-12-15T09:01:27.752Z,-9.67
2022-12-15T09:03:56.225Z,-9.69
2022-12-15T09:06:26.594Z,-9.59
2022-12-15T09:08:58.604Z,-9.47
2022-12-15T09:11:26.190Z,-9.79
2022-12-15T09:13:53.374Z,-9.39
2022-12-15T09:16:21.473Z,-9.22
2022-12-15T09:18:54.517Z,-9.18
2022-12-15T09:21:23.363Z,-9.17
2022-12-15T09:23:50.985Z,-9.43
2022-12-15T09:26:19.175Z,-9.61
2022-12-15T09:28:50.199Z,-9.31
2022-12-15T09:31:21.771Z,-9.25
2022-12-15T09:33:51.236Z,-9.50
2022-12-15T09:36:18.253Z,-9.24
2022-12-15T09:38:44.900Z,-9.35
2022-12-15T09:41:14.600Z,-9.23
2022-12-15T09:43:56.715Z,-9.19
2022-12-15T09:46:42.149Z,-9.29
2022-12-15T09:49:38.002Z,-9.32
2022-12-15T09:52:13.927Z,-9.51
2022-12-15T09:54:42.606Z,-8.92
2022-12-15T09:57:37.639Z,-9.14
2022-12-15T10:00:07.577Z,-8.97
2022-12-15T10:02:46.455Z,-9.03
2022-12-15T10:06:14.396Z,-9.14
2022-12-15T10:08:40.455Z,-9.09
2022-12-15T10:11:43.187Z,-9.21
2022-12-15T10:14:30.805Z,-8.83
2022-12-15T10:17:15.775Z,-8.42
2022-12-15T10:19:50.158Z,-8.32
2022-12-15T10:22:28.470Z,-8.44
2022-12-15T10:25:11.484Z,-8.02
2022-12-15T10:28:16.726Z,-8.17
2022-12-15T10:31:26.444Z,-8.08
2022-12-15T10:34:01.163Z,-7.84
2022-12-15T10:36:27.849Z,-8.33
2022-12-15T10:38:54.424Z,-8.14
2022-12-15T10:41:23.838Z,-7.78
2022-12-15T10:43:52.781Z,-7.89
2022-12-15T10:46:27.961Z,-7.51
2022-12-15T10:49:20.416Z,-7.13
2022-12-15T10:51:58.409Z,-7.26
2022-12-15T10:54:36.039Z,-7.14
2022-12-15T10:57:21.065Z,-7.11
2022-12-15T10:59:50.232Z,-7.45
2022-12-15T11:02:29.870Z,-7.28
2022-12-15T11:05:15.201Z,-7.03
2022-12-15T11:07:54.438Z,-7.00
2022-12-15T11:10:27.487Z,-6.95
2022-12-15T11:12:58.889Z,-7.05
2022-12-15T11:15:37.664Z,-6.68
2022-12-15T11:18:15.601Z,-6.74
2022-12-15T11:20:48.530Z,-6.45
2022-12-15T11:23:46.738Z,-6.51
2022-12-15T11:26:34.412Z,-6.28
2022-12-15T11:29:23.958Z,-6.53
2022-12-15T11:31:52.376Z,-6.44
2022-12-15T11:34:25.895Z,-6.65
2022-12-15T11:37:22.100Z,-6.29
2022-12-15T11:39:57.790Z,-6.38
2022-12-15T11:42:39.311Z,-6.49
2022-12-15T11:45:38.513Z,-6.29
2022-12-15T11:48:16.187Z,-6.25
2022-12-15T11:50:54.043Z,-5.84
2022-12-15T11:53:58.105Z,-5.65
2022-12-15T11:56:29.058Z,-5.65
2022-12-15T11:59:21.518Z,-5.35
2022-12-15T12:04:43.779Z,-5.63
2022-12-15T12:07:45.717Z,-6.04
2022-12-15T12:10:38.706Z,-5.70
2022-12-15T12:13:28.490Z,-5.57
2022-12-15T12:16:23.131Z,-5.38
2022-12-15T12:19:12.206Z,-5.47
2022-12-15T12:22:00.402Z,-6.11
2022-12-15T12:24:36.850Z,-6.25
2022-12-15T12:27:22.026Z,-6.10
2022-12-15T12:29:59.890Z,-6.26
2022-12-15T12:32:50.785Z,-6.62
2022-12-15T12:35:46.813Z,-6.49
2022-12-15T12:38:27.059Z,-6.17
2022-12-15T12:41:00.773Z,-6.53
2022-12-15T12:43:32.131Z,-5.99
2022-12-15T12:46:11.809Z,-5.75
2022-12-15T12:48:57.600Z,-5.81
2022-12-15T12:51:36.457Z,-5.75
2022-12-15T12:54:30.719Z,-5.41
2022-12-15T12:56:57.577Z,-5.53
2022-12-15T12:59:38.247Z,-5.12
2022-12-15T13:02:31.105Z,-4.91
2022-12-15T13:04:57.838Z,-4.84
2022-12-15T13:07:29.105Z,-4.97
2022-12-15T13:10:08.096Z,-5.39
2022-12-15T13:12:53.323Z,-5.76
2022-12-15T13:15:29.794Z,-5.39
2022-12-15T13:18:04.772Z,-5.00
2022-12-15T13:20:33.587Z,-4.93
2022-12-15T13:23:19.047Z,-5.38
2022-12-15T13:25:57.612Z,-5.44
2022-12-15T13:28:37.475Z,-5.31
2022-12-15T13:31:16.738Z,-4.83
2022-12-15T13:33:49.426Z,-4.89
2022-12-15T13:36:38.002Z,-4.30
2022-12-15T13:39:27.597Z,-4.17
2022-12-15T13:42:31.509Z,-4.22
2022-12-15T13:44:45.700Z,-4.11
2022-12-15T13:47:22.536Z,-3.76
2022-12-15T13:50:01.481Z,-3.91
2022-12-15T13:53:17.710Z,-4.84
2022-12-15T13:55:40.137Z,-4.52
2022-12-15T13:58:15.347Z,-4.75
2022-12-15T14:00:56.205Z,-4.56
2022-12-15T14:03:23.554Z,-4.65
2022-12-15T14:05:56.755Z,-4.53
2022-12-15T14:08:26.844Z,-4.35
2022-12-15T14:10:55.980Z,-4.04
2022-12-15T14:13:24.841Z,-3.76
2022-12-15T14:16:00.135Z,-3.62
2022-12-15T14:18:34.128Z,-3.69
2022-12-15T14:21:05.216Z,-3.64
2022-12-15T14:23:58.021Z,-3.81
2022-12-15T14:26:30.715Z,-3.56
2022-12-15T14:29:02.159Z,-3.55
2022-12-15T14:31:30.177Z,-3.57
2022-12-15T14:34:00.101Z,-3.59
2022-12-15T14:36:27.151Z,-3.66
2022-12-15T14:39:00.298Z,-4.41
2022-12-15T14:41:31.575Z,-4.55
2022-12-15T14:44:31.536Z,-4.25
2022-12-15T14:47:23.262Z,-4.15
2022-12-15T14:49:51.367Z,-4.05
2022-12-15T14:52:41.047Z,-4.02
2022-12-15T14:55:32.416Z,-4.04
2022-12-15T14:57:59.542Z,-4.13
2022-12-15T15:00:26.125Z,-4.19
2022-12-15T15:03:12.648Z,-5.27
2022-12-15T15:03:18.317Z,-4.22
2022-12-15T15:06:07.178Z,-4.26
2022-12-15T15:08:47.612Z,-4.66
2022-12-15T15:11:17.310Z,-4.41
2022-12-15T15:13:45.155Z,-4.80
2022-12-15T15:16:17.898Z,-4.57
2022-12-15T15:18:50.067Z,-4.66
2022-12-15T15:21:26.136Z,-4.74
2022-12-15T15:24:12.214Z,-4.76
2022-12-15T15:26:39.507Z,-4.80
2022-12-15T15:29:32.101Z,-4.86
2022-12-15T15:32:25.348Z,-4.95
2022-12-15T15:34:52.024Z,-5.13
2022-12-15T15:37:24.993Z,-5.01
2022-12-15T15:39:54.719Z,-5.00
2022-12-15T15:42:22.333Z,-5.13
2022-12-15T15:44:49.767Z,-5.06
2022-12-15T15:47:34.576Z,-5.22
2022-12-15T15:50:01.327Z,-5.32
2022-12-15T15:52:29.671Z,-5.58
2022-12-15T15:54:56.583Z,-5.56
2022-12-15T15:57:23.490Z,-5.57
2022-12-15T15:59:50.227Z,-5.67
2022-12-15T16:02:17.126Z,-5.73
2022-12-15T16:04:44.275Z,-6.21
2022-12-15T16:07:22.616Z,-5.99
2022-12-15T16:09:50.166Z,-5.91
2022-12-15T16:12:25.664Z,-5.83
2022-12-15T16:14:52.437Z,-5.83
2022-12-15T16:17:19.127Z,-5.73
2022-12-15T16:19:46.014Z,-6.26
2022-12-15T16:22:16.888Z,-5.80
2022-12-15T16:24:43.773Z,-5.83
2022-12-15T16:27:13.665Z,-6.04
2022-12-15T16:29:41.032Z,-6.06
2022-12-15T16:32:10.502Z,-6.05
2022-12-15T16:34:37.308Z,-6.20
2022-12-15T16:37:04.615Z,-6.30
2022-12-15T16:39:34.017Z,-6.40
2022-12-15T16:42:01.278Z,-6.44
2022-12-15T16:44:29.658Z,-6.35
2022-12-15T16:46:56.601Z,-6.38
2022-12-15T16:49:23.588Z,-6.54
2022-12-15T16:51:52.604Z,-6.73
2022-12-15T16:54:28.836Z,-6.82
2022-12-15T16:56:57.789Z,-6.80
2022-12-15T16:59:34.287Z,-6.74
2022-12-15T17:02:02.030Z,-6.62
2022-12-15T17:04:28.758Z,-6.56
2022-12-15T17:06:55.428Z,-6.96
2022-12-15T17:09:24.562Z,-7.04
2022-12-15T17:11:51.623Z,-6.66
2022-12-15T17:14:18.326Z,-6.68
2022-12-15T17:16:45.647Z,-6.61
2022-12-15T17:19:16.299Z,-6.77
2022-12-15T17:21:50.724Z,-6.96
2022-12-15T17:24:20.351Z,-6.73
2022-12-15T17:26:47.784Z,-7.00
2022-12-15T17:29:18.960Z,-6.73
2022-12-15T17:31:47.062Z,-6.95
2022-12-15T17:34:25.612Z,-6.88
2022-12-15T17:36:54.062Z,-6.89
2022-12-15T17:39:22.353Z,-6.88
2022-12-15T17:42:04.595Z,-6.93
2022-12-15T17:44:36.675Z,-7.27
2022-12-15T17:47:06.274Z,-6.96
2022-12-15T17:49:36.560Z,-7.08
2022-12-15T17:52:24.436Z,-7.14
2022-12-15T17:54:51.551Z,-7.19
2022-12-15T17:57:18.153Z,-7.26
2022-12-15T17:59:44.928Z,-7.33
2022-12-15T18:02:15.315Z,-7.25
2022-12-15T18:04:43.185Z,-7.21
2022-12-15T18:07:17.925Z,-7.19
2022-12-15T18:09:44.936Z,-7.19
2022-12-15T18:12:18.813Z,-7.23
2022-12-15T18:14:45.551Z,-7.25
2022-12-15T18:17:12.140Z,-7.26
2022-12-15T18:19:39.002Z,-7.30
2022-12-15T18:22:28.157Z,-7.28
2022-12-15T18:24:55.059Z,-7.29
2022-12-15T18:27:27.142Z,-7.27
2022-12-15T18:29:54.228Z,-7.38
2022-12-15T18:32:26.941Z,-7.37
2022-12-15T18:34:54.776Z,-7.62
2022-12-15T18:37:23.120Z,-7.71
2022-12-15T18:39:50.038Z,-7.65
2022-12-15T18:42:18.997Z,-7.64
2022-12-15T18:44:52.340Z,-7.66
2022-12-15T18:47:23.685Z,-7.69
2022-12-15T18:49:50.766Z,-7.65
2022-12-15T18:52:20.266Z,-7.72
2022-12-15T18:54:48.422Z,-7.75
2022-12-15T18:57:36.061Z,-7.90
2022-12-15T19:00:17.930Z,-7.96
2022-12-15T19:02:44.950Z,-8.17
2022-12-15T19:05:11.724Z,-8.22
2022-12-15T19:07:38.555Z,-8.04
2022-12-15T19:10:05.622Z,-7.98
2022-12-15T19:12:32.336Z,-7.93
2022-12-15T19:14:58.949Z,-8.08
2022-12-15T19:17:25.776Z,-7.89
2022-12-15T19:19:52.360Z,-7.87
2022-12-15T19:22:19.021Z,-7.99
2022-12-15T19:24:46.009Z,-8.13
2022-12-15T19:27:17.159Z,-8.15
2022-12-15T19:29:44.293Z,-8.19
2022-12-15T19:32:11.506Z,-8.23
2022-12-15T19:34:38.334Z,-8.33
2022-12-15T19:37:10.844Z,-8.31
2022-12-15T19:39:37.719Z,-8.47
2022-12-15T19:42:11.615Z,-8.42
2022-12-15T19:44:39.858Z,-8.46
2022-12-15T19:47:12.370Z,-8.66
2022-12-15T19:49:41.065Z,-8.47
2022-12-15T19:52:14.422Z,-8.63
2022-12-15T19:54:42.977Z,-8.47
2022-12-15T19:57:14.929Z,-8.44
2022-12-15T19:59:42.002Z,-8.55
2022-12-15T20:02:19.943Z,-8.43
2022-12-15T20:04:49.775Z,-8.39
2022-12-15T20:07:30.162Z,-8.48
2022-12-15T20:09:56.956Z,-8.35
2022-12-15T20:12:24.272Z,-8.61
2022-12-15T20:14:51.362Z,-8.47
2022-12-15T20:17:17.962Z,-8.61
2022-12-15T20:19:44.644Z,-8.74
2022-12-15T20:22:17.041Z,-8.71
2022-12-15T20:24:45.127Z,-8.75
2022-12-15T20:27:17.348Z,-8.79
2022-12-15T20:29:44.476Z,-8.78
2022-12-15T20:32:16.937Z,-9.16
2022-12-15T20:34:43.822Z,-8.94
2022-12-15T20:37:24.540Z,-8.97
2022-12-15T20:39:56.924Z,-8.88
2022-12-15T20:42:24.632Z,-9.13
2022-12-15T20:44:51.450Z,-8.98
2022-12-15T20:47:24.301Z,-8.99
2022-12-15T20:49:52.906Z,-8.98
2022-12-15T20:52:25.495Z,-9.26
2022-12-15T20:54:53.861Z,-9.03
2022-12-15T20:57:20.772Z,-9.17
2022-12-15T20:59:48.774Z,-8.98
2022-12-15T21:02:21.070Z,-9.05
2022-12-15T21:04:48.961Z,-8.83
2022-12-15T21:07:15.624Z,-8.97
2022-12-15T21:09:42.325Z,-8.81
2022-12-15T21:12:19.750Z,-8.82
2022-12-15T21:14:50.240Z,-8.82
2022-12-15T21:17:19.632Z,-8.88
2022-12-15T21:19:46.637Z,-8.92
2022-12-15T21:22:22.722Z,-8.94
2022-12-15T21:24:55.176Z,-8.96
2022-12-15T21:27:22.534Z,-9.03
2022-12-15T21:29:52.533Z,-9.21
2022-12-15T21:32:21.539Z,-9.08
2022-12-15T21:34:48.131Z,-9.16
2022-12-15T21:37:26.899Z,-9.20
2022-12-15T21:39:54.341Z,-9.08
2022-12-15T21:42:21.702Z,-9.25
2022-12-15T21:44:48.465Z,-9.24
2022-12-15T21:47:30.789Z,-9.20
2022-12-15T21:49:57.517Z,-9.19
2022-12-15T21:52:26.828Z,-9.29
2022-12-15T21:54:53.516Z,-9.36
2022-12-15T21:57:21.431Z,-9.22
2022-12-15T21:59:48.144Z,-9.29
2022-12-15T22:02:26.480Z,-9.34
2022-12-15T22:04:53.444Z,-9.36
2022-12-15T22:07:21.741Z,-9.65
2022-12-15T22:09:48.579Z,-9.39
2022-12-15T22:12:20.578Z,-9.35
2022-12-15T22:14:47.462Z,-9.36
2022-12-15T22:17:19.947Z,-9.43
2022-12-15T22:19:46.891Z,-9.48
2022-12-15T22:22:14.355Z,-9.51
2022-12-15T22:24:41.231Z,-9.67
2022-12-15T22:27:20.366Z,-9.54
2022-12-15T22:29:48.514Z,-9.49
2022-12-15T22:32:16.200Z,-9.58
2022-12-15T22:34:43.103Z,-9.65
2022-12-15T22:37:10.046Z,-9.69
2022-12-15T22:39:36.796Z,-9.69
2022-12-15T22:42:04.360Z,-9.62
2022-12-15T22:44:35.404Z,-9.73
2022-12-15T22:47:02.716Z,-10.30
2022-12-15T22:49:34.309Z,-9.83
2022-12-15T22:52:01.741Z,-10.18
2022-12-15T22:54:31.175Z,-9.79
2022-12-15T22:57:02.835Z,-9.79
2022-12-15T22:59:40.946Z,-10.13
2022-12-15T23:02:09.076Z,-9.88
2022-12-15T23:04:36.042Z,-9.77
2022-12-15T23:07:05.356Z,-9.80
2022-12-15T23:09:32.175Z,-9.83
2022-12-15T23:11:58.893Z,-9.80
2022-12-15T23:14:25.523Z,-9.90
2022-12-15T23:16:52.363Z,-9.78
2022-12-15T23:19:21.557Z,-10.03
2022-12-15T23:21:48.268Z,-9.79
2022-12-15T23:24:14.935Z,-9.92
2022-12-15T23:26:41.640Z,-9.94
2022-12-15T23:29:08.240Z,-9.82
2022-12-15T23:31:36.516Z,-9.86
2022-12-15T23:34:05.571Z,-9.98
2022-12-15T23:36:32.231Z,-9.97
2022-12-15T23:38:59.503Z,-9.92
2022-12-15T23:41:26.209Z,-9.86
2022-12-15T23:43:52.816Z,-9.99
2022-12-15T23:46:19.631Z,-9.93
2022-12-15T23:48:46.310Z,-9.96
2022-12-15T23:51:18.335Z,-9.94
2022-12-15T23:53:46.876Z,-10.03
2022-12-15T23:56:19.643Z,-9.96
2022-12-15T23:58:47.651Z,-9.99
